sensor_id;sensor_type;location;lat;lon;timestamp;P1;durP1;ratioP1;P2;durP2;ratioP2
55589;SDS011;41452;42.780;23.116;2023-04-24T00:00:50;12.15;;;6.97;;
55589;SDS011;41452;42.780;23.116;2023-04-24T00:03:16;10.63;;;7.15;;
55589;SDS011;41452;42.780;23.116;2023-04-24T00:05:41;10.27;;;5.70;;
55589;SDS011;41452;42.780;23.116;2023-04-24T00:08:07;10.90;;;6.25;;
55589;SDS011;41452;42.780;23.116;2023-04-24T00:10:33;14.40;;;6.32;;
55589;SDS011;41452;42.780;23.116;2023-04-24T00:12:58;10.48;;;6.53;;
55589;SDS011;41452;42.780;23.116;2023-04-24T00:15:24;13.48;;;6.90;;
55589;SDS011;41452;42.780;23.116;2023-04-24T00:17:49;9.55;;;6.32;;
55589;SDS011;41452;42.780;23.116;2023-04-24T00:20:14;13.15;;;6.90;;
55589;SDS011;41452;42.780;23.116;2023-04-24T00:22:40;9.43;;;5.55;;
55589;SDS011;41452;42.780;23.116;2023-04-24T00:25:06;10.38;;;7.25;;
55589;SDS011;41452;42.780;23.116;2023-04-24T00:27:31;12.43;;;6.35;;
55589;SDS011;41452;42.780;23.116;2023-04-24T00:29:57;11.50;;;6.75;;
55589;SDS011;41452;42.780;23.116;2023-04-24T00:32:22;9.73;;;5.97;;
55589;SDS011;41452;42.780;23.116;2023-04-24T00:34:47;11.40;;;7.05;;
55589;SDS011;41452;42.780;23.116;2023-04-24T00:37:13;9.18;;;6.75;;
55589;SDS011;41452;42.780;23.116;2023-04-24T00:39:38;12.93;;;7.15;;
55589;SDS011;41452;42.780;23.116;2023-04-24T00:42:04;11.98;;;6.15;;
55589;SDS011;41452;42.780;23.116;2023-04-24T00:44:31;13.65;;;7.57;;
55589;SDS011;41452;42.780;23.116;2023-04-24T00:46:57;10.63;;;7.13;;
55589;SDS011;41452;42.780;23.116;2023-04-24T00:49:24;10.90;;;6.88;;
55589;SDS011;41452;42.780;23.116;2023-04-24T00:51:49;10.23;;;6.88;;
55589;SDS011;41452;42.780;23.116;2023-04-24T00:54:16;9.57;;;6.32;;
55589;SDS011;41452;42.780;23.116;2023-04-24T00:56:42;12.32;;;6.38;;
55589;SDS011;41452;42.780;23.116;2023-04-24T00:59:08;8.90;;;6.53;;
55589;SDS011;41452;42.780;23.116;2023-04-24T01:01:34;10.88;;;6.18;;
55589;SDS011;41452;42.780;23.116;2023-04-24T01:04:00;12.95;;;6.68;;
55589;SDS011;41452;42.780;23.116;2023-04-24T01:06:27;10.55;;;6.88;;
55589;SDS011;41452;42.780;23.116;2023-04-24T01:08:53;12.48;;;6.72;;
55589;SDS011;41452;42.780;23.116;2023-04-24T01:11:20;10.27;;;7.05;;
55589;SDS011;41452;42.780;23.116;2023-04-24T01:13:47;8.68;;;6.10;;
55589;SDS011;41452;42.780;23.116;2023-04-24T01:16:13;9.43;;;6.15;;
55589;SDS011;41452;42.780;23.116;2023-04-24T01:18:39;11.73;;;6.40;;
55589;SDS011;41452;42.780;23.116;2023-04-24T01:21:06;9.85;;;6.35;;
55589;SDS011;41452;42.780;23.116;2023-04-24T01:23:33;12.88;;;6.85;;
55589;SDS011;41452;42.780;23.116;2023-04-24T01:25:59;12.25;;;6.82;;
55589;SDS011;41452;42.780;23.116;2023-04-24T01:28:25;10.20;;;6.35;;
55589;SDS011;41452;42.780;23.116;2023-04-24T01:30:51;14.00;;;7.22;;
55589;SDS011;41452;42.780;23.116;2023-04-24T01:33:17;9.40;;;6.30;;
55589;SDS011;41452;42.780;23.116;2023-04-24T01:35:43;8.82;;;5.82;;
55589;SDS011;41452;42.780;23.116;2023-04-24T01:38:08;8.93;;;6.20;;
55589;SDS011;41452;42.780;23.116;2023-04-24T01:40:34;10.95;;;6.20;;
55589;SDS011;41452;42.780;23.116;2023-04-24T01:42:59;12.68;;;7.03;;
55589;SDS011;41452;42.780;23.116;2023-04-24T01:45:25;10.45;;;6.20;;
55589;SDS011;41452;42.780;23.116;2023-04-24T01:47:51;17.48;;;7.10;;
55589;SDS011;41452;42.780;23.116;2023-04-24T01:50:17;9.93;;;6.72;;
55589;SDS011;41452;42.780;23.116;2023-04-24T01:52:43;13.02;;;7.00;;
55589;SDS011;41452;42.780;23.116;2023-04-24T01:55:08;13.15;;;7.45;;
55589;SDS011;41452;42.780;23.116;2023-04-24T01:57:34;11.50;;;7.38;;
55589;SDS011;41452;42.780;23.116;2023-04-24T02:00:00;11.93;;;6.85;;
55589;SDS011;41452;42.780;23.116;2023-04-24T02:02:25;11.07;;;7.97;;
55589;SDS011;41452;42.780;23.116;2023-04-24T02:04:55;10.13;;;6.20;;
55589;SDS011;41452;42.780;23.116;2023-04-24T02:07:21;11.85;;;6.55;;
55589;SDS011;41452;42.780;23.116;2023-04-24T02:09:46;11.65;;;7.20;;
55589;SDS011;41452;42.780;23.116;2023-04-24T02:12:12;9.65;;;6.05;;
55589;SDS011;41452;42.780;23.116;2023-04-24T02:14:38;12.07;;;6.05;;
55589;SDS011;41452;42.780;23.116;2023-04-24T02:17:03;8.85;;;6.47;;
55589;SDS011;41452;42.780;23.116;2023-04-24T02:19:29;10.68;;;6.30;;
55589;SDS011;41452;42.780;23.116;2023-04-24T02:21:55;10.32;;;6.93;;
55589;SDS011;41452;42.780;23.116;2023-04-24T02:24:20;9.25;;;5.78;;
55589;SDS011;41452;42.780;23.116;2023-04-24T02:26:46;12.05;;;6.07;;
55589;SDS011;41452;42.780;23.116;2023-04-24T02:29:11;8.85;;;5.43;;
55589;SDS011;41452;42.780;23.116;2023-04-24T02:31:36;11.52;;;6.13;;
55589;SDS011;41452;42.780;23.116;2023-04-24T02:34:02;9.93;;;5.75;;
55589;SDS011;41452;42.780;23.116;2023-04-24T02:36:27;13.63;;;6.03;;
55589;SDS011;41452;42.780;23.116;2023-04-24T02:38:53;10.63;;;6.55;;
55589;SDS011;41452;42.780;23.116;2023-04-24T02:41:18;10.27;;;5.72;;
55589;SDS011;41452;42.780;23.116;2023-04-24T02:43:44;9.52;;;5.80;;
55589;SDS011;41452;42.780;23.116;2023-04-24T02:46:10;10.77;;;6.05;;
55589;SDS011;41452;42.780;23.116;2023-04-24T02:48:35;7.65;;;5.80;;
55589;SDS011;41452;42.780;23.116;2023-04-24T02:51:00;9.38;;;5.80;;
55589;SDS011;41452;42.780;23.116;2023-04-24T02:53:26;10.38;;;5.93;;
55589;SDS011;41452;42.780;23.116;2023-04-24T02:55:51;15.50;;;8.20;;
55589;SDS011;41452;42.780;23.116;2023-04-24T02:58:17;11.43;;;6.88;;
55589;SDS011;41452;42.780;23.116;2023-04-24T03:00:44;12.07;;;6.47;;
55589;SDS011;41452;42.780;23.116;2023-04-24T03:03:10;10.20;;;6.15;;
55589;SDS011;41452;42.780;23.116;2023-04-24T03:05:35;9.65;;;6.57;;
55589;SDS011;41452;42.780;23.116;2023-04-24T03:08:01;8.57;;;5.85;;
55589;SDS011;41452;42.780;23.116;2023-04-24T03:10:26;10.82;;;5.68;;
55589;SDS011;41452;42.780;23.116;2023-04-24T03:12:51;7.45;;;5.03;;
55589;SDS011;41452;42.780;23.116;2023-04-24T03:15:17;10.20;;;5.90;;
55589;SDS011;41452;42.780;23.116;2023-04-24T03:17:43;8.48;;;5.57;;
55589;SDS011;41452;42.780;23.116;2023-04-24T03:20:08;11.13;;;6.28;;
55589;SDS011;41452;42.780;23.116;2023-04-24T03:22:34;10.70;;;6.50;;
55589;SDS011;41452;42.780;23.116;2023-04-24T03:25:00;8.52;;;5.43;;
55589;SDS011;41452;42.780;23.116;2023-04-24T03:27:26;12.32;;;6.18;;
55589;SDS011;41452;42.780;23.116;2023-04-24T03:29:51;8.50;;;5.65;;
55589;SDS011;41452;42.780;23.116;2023-04-24T03:32:20;8.23;;;5.72;;
55589;SDS011;41452;42.780;23.116;2023-04-24T03:34:46;9.95;;;5.85;;
55589;SDS011;41452;42.780;23.116;2023-04-24T03:37:11;13.23;;;6.05;;
55589;SDS011;41452;42.780;23.116;2023-04-24T03:39:36;8.55;;;5.50;;
55589;SDS011;41452;42.780;23.116;2023-04-24T03:42:02;9.48;;;6.13;;
55589;SDS011;41452;42.780;23.116;2023-04-24T03:44:28;9.20;;;5.80;;
55589;SDS011;41452;42.780;23.116;2023-04-24T03:46:53;9.85;;;5.93;;
55589;SDS011;41452;42.780;23.116;2023-04-24T03:49:18;11.43;;;6.00;;
55589;SDS011;41452;42.780;23.116;2023-04-24T03:51:44;8.77;;;6.45;;
55589;SDS011;41452;42.780;23.116;2023-04-24T03:54:09;9.85;;;6.18;;
55589;SDS011;41452;42.780;23.116;2023-04-24T03:56:35;8.57;;;5.57;;
55589;SDS011;41452;42.780;23.116;2023-04-24T03:59:00;10.10;;;5.90;;
55589;SDS011;41452;42.780;23.116;2023-04-24T04:01:26;10.02;;;5.85;;
55589;SDS011;41452;42.780;23.116;2023-04-24T04:03:53;8.77;;;5.25;;
55589;SDS011;41452;42.780;23.116;2023-04-24T04:06:18;8.90;;;5.20;;
55589;SDS011;41452;42.780;23.116;2023-04-24T04:08:44;12.23;;;5.32;;
55589;SDS011;41452;42.780;23.116;2023-04-24T04:11:09;10.18;;;6.15;;
55589;SDS011;41452;42.780;23.116;2023-04-24T04:13:35;7.95;;;5.57;;
55589;SDS011;41452;42.780;23.116;2023-04-24T04:16:00;8.93;;;6.00;;
55589;SDS011;41452;42.780;23.116;2023-04-24T04:18:26;9.85;;;5.88;;
55589;SDS011;41452;42.780;23.116;2023-04-24T04:20:51;10.10;;;5.75;;
55589;SDS011;41452;42.780;23.116;2023-04-24T04:23:16;8.70;;;5.82;;
55589;SDS011;41452;42.780;23.116;2023-04-24T04:25:42;11.00;;;5.72;;
55589;SDS011;41452;42.780;23.116;2023-04-24T04:28:07;15.07;;;6.13;;
55589;SDS011;41452;42.780;23.116;2023-04-24T04:30:33;10.65;;;6.00;;
55589;SDS011;41452;42.780;23.116;2023-04-24T04:32:58;8.85;;;5.50;;
55589;SDS011;41452;42.780;23.116;2023-04-24T04:35:24;8.73;;;6.10;;
55589;SDS011;41452;42.780;23.116;2023-04-24T04:37:49;10.57;;;5.90;;
55589;SDS011;41452;42.780;23.116;2023-04-24T04:40:16;9.07;;;5.45;;
55589;SDS011;41452;42.780;23.116;2023-04-24T04:42:41;10.98;;;6.10;;
55589;SDS011;41452;42.780;23.116;2023-04-24T04:45:07;11.50;;;5.78;;
55589;SDS011;41452;42.780;23.116;2023-04-24T04:47:36;12.30;;;5.88;;
55589;SDS011;41452;42.780;23.116;2023-04-24T04:50:02;12.65;;;6.72;;
55589;SDS011;41452;42.780;23.116;2023-04-24T04:52:28;11.60;;;6.38;;
55589;SDS011;41452;42.780;23.116;2023-04-24T04:54:54;9.52;;;6.28;;
55589;SDS011;41452;42.780;23.116;2023-04-24T04:57:20;10.93;;;6.47;;
55589;SDS011;41452;42.780;23.116;2023-04-24T04:59:46;8.95;;;6.18;;
55589;SDS011;41452;42.780;23.116;2023-04-24T05:02:11;13.02;;;6.75;;
55589;SDS011;41452;42.780;23.116;2023-04-24T05:04:37;9.98;;;7.05;;
55589;SDS011;41452;42.780;23.116;2023-04-24T05:07:02;9.48;;;5.63;;
55589;SDS011;41452;42.780;23.116;2023-04-24T05:09:28;10.50;;;6.50;;
55589;SDS011;41452;42.780;23.116;2023-04-24T05:11:54;11.98;;;6.70;;
55589;SDS011;41452;42.780;23.116;2023-04-24T05:14:20;12.38;;;6.22;;
55589;SDS011;41452;42.780;23.116;2023-04-24T05:16:45;10.40;;;6.88;;
55589;SDS011;41452;42.780;23.116;2023-04-24T05:19:11;12.07;;;6.32;;
55589;SDS011;41452;42.780;23.116;2023-04-24T05:21:38;12.93;;;7.13;;
55589;SDS011;41452;42.780;23.116;2023-04-24T05:24:04;14.20;;;6.82;;
55589;SDS011;41452;42.780;23.116;2023-04-24T05:26:30;18.17;;;7.50;;
55589;SDS011;41452;42.780;23.116;2023-04-24T05:28:55;11.88;;;7.20;;
55589;SDS011;41452;42.780;23.116;2023-04-24T05:31:21;12.73;;;7.80;;
55589;SDS011;41452;42.780;23.116;2023-04-24T05:33:46;11.90;;;8.02;;
55589;SDS011;41452;42.780;23.116;2023-04-24T05:36:12;10.43;;;6.72;;
55589;SDS011;41452;42.780;23.116;2023-04-24T05:38:38;11.07;;;6.05;;
55589;SDS011;41452;42.780;23.116;2023-04-24T05:41:03;9.02;;;4.78;;
55589;SDS011;41452;42.780;23.116;2023-04-24T05:43:29;15.15;;;5.00;;
55589;SDS011;41452;42.780;23.116;2023-04-24T05:45:54;9.85;;;5.28;;
55589;SDS011;41452;42.780;23.116;2023-04-24T05:48:20;6.32;;;4.25;;
55589;SDS011;41452;42.780;23.116;2023-04-24T05:50:47;9.40;;;4.85;;
55589;SDS011;41452;42.780;23.116;2023-04-24T05:53:13;9.93;;;4.70;;
55589;SDS011;41452;42.780;23.116;2023-04-24T05:55:38;10.25;;;5.10;;
55589;SDS011;41452;42.780;23.116;2023-04-24T05:58:03;7.43;;;3.75;;
55589;SDS011;41452;42.780;23.116;2023-04-24T06:00:29;6.78;;;4.45;;
55589;SDS011;41452;42.780;23.116;2023-04-24T06:02:55;12.30;;;6.15;;
55589;SDS011;41452;42.780;23.116;2023-04-24T06:05:21;9.57;;;4.78;;
55589;SDS011;41452;42.780;23.116;2023-04-24T06:07:46;8.82;;;4.53;;
55589;SDS011;41452;42.780;23.116;2023-04-24T06:10:13;15.35;;;5.43;;
55589;SDS011;41452;42.780;23.116;2023-04-24T06:12:38;15.27;;;5.45;;
55589;SDS011;41452;42.780;23.116;2023-04-24T06:15:03;10.32;;;5.70;;
55589;SDS011;41452;42.780;23.116;2023-04-24T06:17:30;7.40;;;4.70;;
55589;SDS011;41452;42.780;23.116;2023-04-24T06:19:55;10.23;;;4.65;;
55589;SDS011;41452;42.780;23.116;2023-04-24T06:22:21;10.00;;;4.82;;
55589;SDS011;41452;42.780;23.116;2023-04-24T06:24:46;12.63;;;4.93;;
55589;SDS011;41452;42.780;23.116;2023-04-24T06:27:13;9.10;;;4.65;;
55589;SDS011;41452;42.780;23.116;2023-04-24T06:29:38;9.50;;;5.13;;
55589;SDS011;41452;42.780;23.116;2023-04-24T06:32:04;9.30;;;5.03;;
55589;SDS011;41452;42.780;23.116;2023-04-24T06:34:30;12.35;;;4.88;;
55589;SDS011;41452;42.780;23.116;2023-04-24T06:36:56;10.23;;;4.82;;
55589;SDS011;41452;42.780;23.116;2023-04-24T06:39:21;12.20;;;4.82;;
55589;SDS011;41452;42.780;23.116;2023-04-24T06:41:47;7.75;;;4.45;;
55589;SDS011;41452;42.780;23.116;2023-04-24T06:44:12;10.63;;;4.63;;
55589;SDS011;41452;42.780;23.116;2023-04-24T06:46:39;7.93;;;4.55;;
55589;SDS011;41452;42.780;23.116;2023-04-24T06:49:05;8.00;;;5.43;;
55589;SDS011;41452;42.780;23.116;2023-04-24T06:51:31;7.80;;;4.93;;
55589;SDS011;41452;42.780;23.116;2023-04-24T06:53:58;8.38;;;5.13;;
55589;SDS011;41452;42.780;23.116;2023-04-24T06:56:24;14.50;;;4.88;;
55589;SDS011;41452;42.780;23.116;2023-04-24T06:58:50;7.35;;;4.47;;
55589;SDS011;41452;42.780;23.116;2023-04-24T07:01:16;8.75;;;4.57;;
55589;SDS011;41452;42.780;23.116;2023-04-24T07:03:42;7.47;;;5.10;;
55589;SDS011;41452;42.780;23.116;2023-04-24T07:06:07;13.93;;;6.03;;
55589;SDS011;41452;42.780;23.116;2023-04-24T07:08:35;10.07;;;5.68;;
55589;SDS011;41452;42.780;23.116;2023-04-24T07:11:00;9.48;;;5.05;;
55589;SDS011;41452;42.780;23.116;2023-04-24T07:13:26;7.82;;;4.97;;
55589;SDS011;41452;42.780;23.116;2023-04-24T07:15:53;11.80;;;5.25;;
55589;SDS011;41452;42.780;23.116;2023-04-24T07:18:20;11.98;;;5.32;;
55589;SDS011;41452;42.780;23.116;2023-04-24T07:20:46;11.45;;;5.38;;
55589;SDS011;41452;42.780;23.116;2023-04-24T07:23:11;10.40;;;4.72;;
55589;SDS011;41452;42.780;23.116;2023-04-24T07:25:37;7.88;;;4.53;;
55589;SDS011;41452;42.780;23.116;2023-04-24T07:28:03;10.18;;;5.38;;
55589;SDS011;41452;42.780;23.116;2023-04-24T07:30:29;8.30;;;5.03;;
55589;SDS011;41452;42.780;23.116;2023-04-24T07:32:55;12.18;;;5.32;;
55589;SDS011;41452;42.780;23.116;2023-04-24T07:35:21;10.70;;;5.63;;
55589;SDS011;41452;42.780;23.116;2023-04-24T07:37:46;9.48;;;4.47;;
55589;SDS011;41452;42.780;23.116;2023-04-24T07:40:12;10.35;;;5.28;;
55589;SDS011;41452;42.780;23.116;2023-04-24T07:42:38;7.88;;;4.55;;
55589;SDS011;41452;42.780;23.116;2023-04-24T07:45:04;8.98;;;4.88;;
55589;SDS011;41452;42.780;23.116;2023-04-24T07:47:30;10.95;;;4.95;;
55589;SDS011;41452;42.780;23.116;2023-04-24T07:49:56;9.82;;;5.15;;
55589;SDS011;41452;42.780;23.116;2023-04-24T07:52:21;11.85;;;5.95;;
55589;SDS011;41452;42.780;23.116;2023-04-24T07:54:47;8.25;;;5.03;;
55589;SDS011;41452;42.780;23.116;2023-04-24T07:57:12;10.65;;;4.57;;
55589;SDS011;41452;42.780;23.116;2023-04-24T07:59:38;9.73;;;5.20;;
55589;SDS011;41452;42.780;23.116;2023-04-24T08:02:04;7.15;;;4.90;;
55589;SDS011;41452;42.780;23.116;2023-04-24T08:04:31;12.60;;;5.00;;
55589;SDS011;41452;42.780;23.116;2023-04-24T08:06:56;8.55;;;5.03;;
55589;SDS011;41452;42.780;23.116;2023-04-24T08:09:22;11.73;;;4.85;;
55589;SDS011;41452;42.780;23.116;2023-04-24T08:11:47;8.45;;;5.30;;
55589;SDS011;41452;42.780;23.116;2023-04-24T08:14:12;7.68;;;4.38;;
55589;SDS011;41452;42.780;23.116;2023-04-24T08:16:38;8.93;;;4.70;;
55589;SDS011;41452;42.780;23.116;2023-04-24T08:19:03;10.27;;;5.10;;
55589;SDS011;41452;42.780;23.116;2023-04-24T08:21:29;10.43;;;5.28;;
55589;SDS011;41452;42.780;23.116;2023-04-24T08:23:54;11.40;;;4.95;;
55589;SDS011;41452;42.780;23.116;2023-04-24T08:26:20;8.18;;;5.53;;
55589;SDS011;41452;42.780;23.116;2023-04-24T08:28:45;8.57;;;5.60;;
55589;SDS011;41452;42.780;23.116;2023-04-24T08:31:11;9.43;;;5.28;;
55589;SDS011;41452;42.780;23.116;2023-04-24T08:33:36;8.40;;;5.47;;
55589;SDS011;41452;42.780;23.116;2023-04-24T08:36:02;7.43;;;4.60;;
55589;SDS011;41452;42.780;23.116;2023-04-24T08:38:29;9.27;;;4.80;;
55589;SDS011;41452;42.780;23.116;2023-04-24T08:40:56;9.75;;;4.97;;
55589;SDS011;41452;42.780;23.116;2023-04-24T08:43:23;9.98;;;5.03;;
55589;SDS011;41452;42.780;23.116;2023-04-24T08:45:49;7.35;;;4.80;;
55589;SDS011;41452;42.780;23.116;2023-04-24T08:48:15;6.93;;;4.55;;
55589;SDS011;41452;42.780;23.116;2023-04-24T08:50:41;8.43;;;4.78;;
55589;SDS011;41452;42.780;23.116;2023-04-24T08:53:09;7.47;;;4.45;;
55589;SDS011;41452;42.780;23.116;2023-04-24T08:55:35;10.48;;;4.80;;
55589;SDS011;41452;42.780;23.116;2023-04-24T08:58:01;8.80;;;4.95;;
55589;SDS011;41452;42.780;23.116;2023-04-24T09:00:29;6.35;;;4.63;;
55589;SDS011;41452;42.780;23.116;2023-04-24T09:02:55;9.18;;;4.43;;
55589;SDS011;41452;42.780;23.116;2023-04-24T09:05:21;11.35;;;5.57;;
55589;SDS011;41452;42.780;23.116;2023-04-24T09:07:55;9.15;;;5.05;;
55589;SDS011;41452;42.780;23.116;2023-04-24T09:10:23;14.10;;;4.93;;
55589;SDS011;41452;42.780;23.116;2023-04-24T09:12:52;7.43;;;4.63;;
55589;SDS011;41452;42.780;23.116;2023-04-24T09:15:19;6.32;;;4.32;;
55589;SDS011;41452;42.780;23.116;2023-04-24T09:17:45;6.80;;;4.90;;
55589;SDS011;41452;42.780;23.116;2023-04-24T09:20:11;10.02;;;5.40;;
55589;SDS011;41452;42.780;23.116;2023-04-24T09:22:36;12.50;;;5.03;;
55589;SDS011;41452;42.780;23.116;2023-04-24T09:25:03;7.43;;;4.78;;
55589;SDS011;41452;42.780;23.116;2023-04-24T09:27:31;9.93;;;4.28;;
55589;SDS011;41452;42.780;23.116;2023-04-24T09:29:57;12.60;;;4.80;;
55589;SDS011;41452;42.780;23.116;2023-04-24T09:32:24;6.90;;;4.40;;
55589;SDS011;41452;42.780;23.116;2023-04-24T09:35:04;6.68;;;4.40;;
55589;SDS011;41452;42.780;23.116;2023-04-24T09:37:44;10.32;;;5.07;;
55589;SDS011;41452;42.780;23.116;2023-04-24T09:42:39;5.43;;;3.72;;
55589;SDS011;41452;42.780;23.116;2023-04-24T09:45:11;11.75;;;4.30;;
55589;SDS011;41452;42.780;23.116;2023-04-24T09:47:40;16.92;;;4.80;;
55589;SDS011;41452;42.780;23.116;2023-04-24T09:50:10;7.13;;;4.53;;
55589;SDS011;41452;42.780;23.116;2023-04-24T09:52:44;7.18;;;4.32;;
55589;SDS011;41452;42.780;23.116;2023-04-24T09:55:15;10.30;;;3.88;;
55589;SDS011;41452;42.780;23.116;2023-04-24T10:00:21;10.95;;;4.82;;
55589;SDS011;41452;42.780;23.116;2023-04-24T10:02:54;7.70;;;4.15;;
55589;SDS011;41452;42.780;23.116;2023-04-24T10:05:24;7.80;;;4.03;;
55589;SDS011;41452;42.780;23.116;2023-04-24T10:07:54;9.57;;;3.90;;
55589;SDS011;41452;42.780;23.116;2023-04-24T10:10:21;10.43;;;4.43;;
55589;SDS011;41452;42.780;23.116;2023-04-24T10:12:47;10.40;;;4.05;;
55589;SDS011;41452;42.780;23.116;2023-04-24T10:15:14;9.15;;;4.00;;
55589;SDS011;41452;42.780;23.116;2023-04-24T10:17:41;15.23;;;4.60;;
55589;SDS011;41452;42.780;23.116;2023-04-24T10:20:08;8.30;;;4.00;;
55589;SDS011;41452;42.780;23.116;2023-04-24T10:22:34;5.57;;;4.22;;
55589;SDS011;41452;42.780;23.116;2023-04-24T10:25:01;6.10;;;4.40;;
55589;SDS011;41452;42.780;23.116;2023-04-24T10:27:29;11.88;;;4.40;;
55589;SDS011;41452;42.780;23.116;2023-04-24T10:29:55;5.97;;;3.58;;
55589;SDS011;41452;42.780;23.116;2023-04-24T10:32:21;8.43;;;4.28;;
55589;SDS011;41452;42.780;23.116;2023-04-24T10:34:46;8.27;;;3.88;;
55589;SDS011;41452;42.780;23.116;2023-04-24T10:37:12;9.57;;;3.50;;
55589;SDS011;41452;42.780;23.116;2023-04-24T10:39:39;9.93;;;4.25;;
55589;SDS011;41452;42.780;23.116;2023-04-24T10:42:15;6.10;;;4.20;;
55589;SDS011;41452;42.780;23.116;2023-04-24T10:44:41;7.10;;;3.80;;
55589;SDS011;41452;42.780;23.116;2023-04-24T10:47:07;11.27;;;4.78;;
55589;SDS011;41452;42.780;23.116;2023-04-24T10:49:38;8.13;;;4.35;;
55589;SDS011;41452;42.780;23.116;2023-04-24T10:52:04;7.28;;;3.78;;
55589;SDS011;41452;42.780;23.116;2023-04-24T10:54:36;6.30;;;4.03;;
55589;SDS011;41452;42.780;23.116;2023-04-24T10:59:46;8.73;;;3.90;;
55589;SDS011;41452;42.780;23.116;2023-04-24T11:02:16;6.22;;;2.83;;
55589;SDS011;41452;42.780;23.116;2023-04-24T11:04:42;7.00;;;2.75;;
55589;SDS011;41452;42.780;23.116;2023-04-24T11:07:09;3.55;;;2.30;;
55589;SDS011;41452;42.780;23.116;2023-04-24T11:09:35;4.43;;;2.78;;
55589;SDS011;41452;42.780;23.116;2023-04-24T11:12:08;4.32;;;2.78;;
55589;SDS011;41452;42.780;23.116;2023-04-24T11:17:32;5.78;;;2.78;;
55589;SDS011;41452;42.780;23.116;2023-04-24T11:20:02;5.68;;;3.00;;
55589;SDS011;41452;42.780;23.116;2023-04-24T11:22:33;5.07;;;2.55;;
55589;SDS011;41452;42.780;23.116;2023-04-24T11:25:03;7.03;;;2.95;;
55589;SDS011;41452;42.780;23.116;2023-04-24T11:27:30;3.58;;;2.70;;
55589;SDS011;41452;42.780;23.116;2023-04-24T11:35:23;4.78;;;2.92;;
55589;SDS011;41452;42.780;23.116;2023-04-24T11:37:50;5.47;;;3.40;;
55589;SDS011;41452;42.780;23.116;2023-04-24T11:40:18;5.25;;;3.03;;
55589;SDS011;41452;42.780;23.116;2023-04-24T11:42:46;5.28;;;3.15;;
55589;SDS011;41452;42.780;23.116;2023-04-24T11:45:20;6.47;;;3.15;;
55589;SDS011;41452;42.780;23.116;2023-04-24T11:47:47;6.45;;;3.03;;
55589;SDS011;41452;42.780;23.116;2023-04-24T11:50:14;6.10;;;3.33;;
55589;SDS011;41452;42.780;23.116;2023-04-24T11:52:41;3.90;;;2.95;;
55589;SDS011;41452;42.780;23.116;2023-04-24T11:55:12;3.72;;;2.65;;
55589;SDS011;41452;42.780;23.116;2023-04-24T11:57:52;4.38;;;2.50;;
55589;SDS011;41452;42.780;23.116;2023-04-24T12:02:46;6.75;;;3.15;;
55589;SDS011;41452;42.780;23.116;2023-04-24T12:07:48;7.40;;;3.42;;
55589;SDS011;41452;42.780;23.116;2023-04-24T12:10:14;5.28;;;3.33;;
55589;SDS011;41452;42.780;23.116;2023-04-24T12:12:39;5.85;;;3.10;;
55589;SDS011;41452;42.780;23.116;2023-04-24T12:15:08;4.63;;;3.25;;
55589;SDS011;41452;42.780;23.116;2023-04-24T12:17:34;4.88;;;3.38;;
55589;SDS011;41452;42.780;23.116;2023-04-24T12:20:05;6.85;;;3.50;;
55589;SDS011;41452;42.780;23.116;2023-04-24T12:25:16;3.78;;;3.03;;
55589;SDS011;41452;42.780;23.116;2023-04-24T12:27:43;6.55;;;3.20;;
55589;SDS011;41452;42.780;23.116;2023-04-24T12:30:13;6.53;;;3.67;;
55589;SDS011;41452;42.780;23.116;2023-04-24T12:32:44;5.25;;;3.58;;
55589;SDS011;41452;42.780;23.116;2023-04-24T12:35:11;4.25;;;2.78;;
55589;SDS011;41452;42.780;23.116;2023-04-24T12:37:37;4.20;;;3.30;;
55589;SDS011;41452;42.780;23.116;2023-04-24T12:42:34;7.35;;;3.63;;
55589;SDS011;41452;42.780;23.116;2023-04-24T12:45:06;4.55;;;3.30;;
55589;SDS011;41452;42.780;23.116;2023-04-24T12:47:33;7.22;;;3.60;;
55589;SDS011;41452;42.780;23.116;2023-04-24T12:49:59;6.15;;;3.60;;
55589;SDS011;41452;42.780;23.116;2023-04-24T12:52:25;4.88;;;3.20;;
55589;SDS011;41452;42.780;23.116;2023-04-24T12:54:52;5.63;;;3.40;;
55589;SDS011;41452;42.780;23.116;2023-04-24T12:57:19;4.70;;;3.13;;
55589;SDS011;41452;42.780;23.116;2023-04-24T12:59:44;5.28;;;3.53;;
55589;SDS011;41452;42.780;23.116;2023-04-24T13:02:10;6.13;;;3.72;;
55589;SDS011;41452;42.780;23.116;2023-04-24T13:04:36;6.90;;;3.42;;
55589;SDS011;41452;42.780;23.116;2023-04-24T13:07:02;5.60;;;3.20;;
55589;SDS011;41452;42.780;23.116;2023-04-24T13:09:27;6.43;;;3.25;;
55589;SDS011;41452;42.780;23.116;2023-04-24T13:11:53;5.50;;;3.03;;
55589;SDS011;41452;42.780;23.116;2023-04-24T13:14:20;5.13;;;3.15;;
55589;SDS011;41452;42.780;23.116;2023-04-24T13:16:45;5.38;;;3.10;;
55589;SDS011;41452;42.780;23.116;2023-04-24T13:19:11;3.90;;;2.88;;
55589;SDS011;41452;42.780;23.116;2023-04-24T13:21:36;4.97;;;3.28;;
55589;SDS011;41452;42.780;23.116;2023-04-24T13:24:01;4.90;;;2.70;;
55589;SDS011;41452;42.780;23.116;2023-04-24T13:26:29;5.40;;;2.65;;
55589;SDS011;41452;42.780;23.116;2023-04-24T13:28:55;6.32;;;2.97;;
55589;SDS011;41452;42.780;23.116;2023-04-24T13:31:20;4.15;;;2.63;;
55589;SDS011;41452;42.780;23.116;2023-04-24T13:33:46;4.43;;;2.25;;
55589;SDS011;41452;42.780;23.116;2023-04-24T13:36:11;5.15;;;2.72;;
55589;SDS011;41452;42.780;23.116;2023-04-24T13:38:37;5.93;;;2.40;;
55589;SDS011;41452;42.780;23.116;2023-04-24T13:41:02;3.58;;;2.53;;
55589;SDS011;41452;42.780;23.116;2023-04-24T13:43:28;4.57;;;2.90;;
55589;SDS011;41452;42.780;23.116;2023-04-24T13:45:53;4.30;;;2.60;;
55589;SDS011;41452;42.780;23.116;2023-04-24T13:48:19;5.15;;;2.40;;
55589;SDS011;41452;42.780;23.116;2023-04-24T13:50:44;5.35;;;3.22;;
55589;SDS011;41452;42.780;23.116;2023-04-24T13:53:09;4.82;;;3.20;;
55589;SDS011;41452;42.780;23.116;2023-04-24T13:55:35;10.27;;;2.95;;
55589;SDS011;41452;42.780;23.116;2023-04-24T13:58:01;6.18;;;3.10;;
55589;SDS011;41452;42.780;23.116;2023-04-24T14:00:27;6.40;;;3.30;;
55589;SDS011;41452;42.780;23.116;2023-04-24T14:02:53;5.85;;;2.95;;
55589;SDS011;41452;42.780;23.116;2023-04-24T14:05:18;10.50;;;3.15;;
55589;SDS011;41452;42.780;23.116;2023-04-24T14:07:45;5.70;;;3.15;;
55589;SDS011;41452;42.780;23.116;2023-04-24T14:10:11;10.55;;;2.97;;
55589;SDS011;41452;42.780;23.116;2023-04-24T14:12:36;5.82;;;3.40;;
55589;SDS011;41452;42.780;23.116;2023-04-24T14:15:02;8.02;;;3.17;;
55589;SDS011;41452;42.780;23.116;2023-04-24T14:17:27;4.35;;;3.20;;
55589;SDS011;41452;42.780;23.116;2023-04-24T14:19:53;5.15;;;3.20;;
55589;SDS011;41452;42.780;23.116;2023-04-24T14:22:21;6.63;;;3.30;;
55589;SDS011;41452;42.780;23.116;2023-04-24T14:24:46;6.63;;;3.58;;
55589;SDS011;41452;42.780;23.116;2023-04-24T14:27:11;7.13;;;3.58;;
55589;SDS011;41452;42.780;23.116;2023-04-24T14:29:37;4.82;;;3.17;;
55589;SDS011;41452;42.780;23.116;2023-04-24T14:32:02;6.22;;;3.58;;
55589;SDS011;41452;42.780;23.116;2023-04-24T14:34:28;5.85;;;3.38;;
55589;SDS011;41452;42.780;23.116;2023-04-24T14:36:53;10.00;;;3.40;;
55589;SDS011;41452;42.780;23.116;2023-04-24T14:39:19;6.22;;;2.70;;
55589;SDS011;41452;42.780;23.116;2023-04-24T14:41:45;5.95;;;3.22;;
55589;SDS011;41452;42.780;23.116;2023-04-24T14:44:10;6.90;;;2.75;;
55589;SDS011;41452;42.780;23.116;2023-04-24T14:46:36;5.18;;;3.00;;
55589;SDS011;41452;42.780;23.116;2023-04-24T14:49:01;10.63;;;3.35;;